Time;durP1;ratioP1;P1;durP2;ratioP2;P2;SDS_P1;SDS_P2;PMS_P1;PMS_P2;Temp;Humidity;BMP_temperature;BMP_pressure;BME280_temperature;BME280_humidity;BME280_pressure;Samples;Min_cycle;Max_cycle;Signal;HPM_P1;HPM_P2
2022/03/30 00:00:12;;;;;;;68.67;32.70;;;5.10;99.90;;;;;;4336409;28;658618;-86
2022/03/30 00:03:00;;;;;;;70.87;31.27;;;5.10;99.90;;;;;;4323704;28;659020;-86
2022/03/30 00:05:48;;;;;;;71.07;29.80;;;5.10;99.90;;;;;;4328253;28;659213;-86
2022/03/30 00:08:35;;;;;;;71.63;29.80;;;5.10;99.90;;;;;;4315879;28;658889;-86
2022/03/30 00:11:24;;;;;;;67.77;29.20;;;5.10;99.90;;;;;;4322783;28;659243;-86
2022/03/30 00:14:11;;;;;;;63.97;29.97;;;5.10;99.90;;;;;;4311026;28;659440;-87
2022/03/30 00:16:59;;;;;;;68.97;28.97;;;5.00;99.90;;;;;;4322730;28;658613;-86
2022/03/30 00:19:46;;;;;;;70.57;30.43;;;5.00;99.90;;;;;;4315697;28;658925;-87
2022/03/30 00:22:34;;;;;;;74.20;32.17;;;5.00;99.90;;;;;;4332009;28;659372;-86
2022/03/30 00:25:21;;;;;;;80.43;35.63;;;5.00;99.90;;;;;;4300602;29;659139;-87
2022/03/30 00:28:10;;;;;;;79.63;34.73;;;5.00;99.90;;;;;;4329078;28;658754;-87
2022/03/30 00:30:58;;;;;;;75.53;33.07;;;4.90;99.90;;;;;;4317479;28;659764;-87
2022/03/30 00:33:48;;;;;;;67.97;32.45;;;4.90;99.90;;;;;;4312359;28;658697;-86
2022/03/30 00:36:35;;;;;;;70.10;31.42;;;4.80;99.90;;;;;;4319327;28;658938;-87
2022/03/30 00:39:23;;;;;;;67.07;29.57;;;4.80;99.90;;;;;;4326870;28;659493;-87
2022/03/30 00:42:16;;;;;;;69.13;29.80;;;4.70;99.90;;;;;;4317560;28;658916;-86
2022/03/30 00:45:09;;;;;;;70.00;31.47;;;4.60;99.90;;;;;;4313091;28;659850;-87
2022/03/30 00:47:57;;;;;;;62.90;29.90;;;4.60;99.90;;;;;;4316914;28;658752;-87
2022/03/30 00:50:44;;;;;;;73.10;32.10;;;4.50;99.90;;;;;;4330714;28;658771;-87
2022/03/30 00:53:31;;;;;;;71.90;30.97;;;4.50;99.90;;;;;;4314876;28;658513;-87
2022/03/30 00:56:19;;;;;;;64.87;30.40;;;4.40;1.00;;;;;;4333606;28;659308;-87
2022/03/30 00:59:06;;;;;;;70.23;31.73;;;4.40;99.90;;;;;;4299077;28;657506;-87
2022/03/30 01:01:55;;;;;;;71.57;32.43;;;4.30;99.90;;;;;;4331412;28;658848;-86
2022/03/30 01:04:42;;;;;;;72.40;31.60;;;4.30;1.00;;;;;;4321196;28;658841;-86
2022/03/30 01:07:30;;;;;;;77.13;32.63;;;4.30;99.90;;;;;;4330152;28;657565;-86
2022/03/30 01:10:18;;;;;;;78.43;32.50;;;4.30;99.90;;;;;;4322847;28;659081;-86
2022/03/30 01:13:07;;;;;;;76.17;32.67;;;4.20;99.90;;;;;;4306389;28;658804;-87
2022/03/30 01:15:54;;;;;;;81.33;33.80;;;4.10;99.90;;;;;;4336686;28;658327;-86
2022/03/30 01:18:43;;;;;;;86.80;36.55;;;4.10;99.90;;;;;;4303264;28;658664;-87
2022/03/30 01:21:32;;;;;;;81.20;34.03;;;4.10;1.00;;;;;;4319905;28;658974;-87
2022/03/30 01:24:19;;;;;;;77.43;33.57;;;4.00;1.00;;;;;;4333011;28;657725;-86
2022/03/30 01:27:07;;;;;;;67.87;31.20;;;3.90;1.00;;;;;;4318446;28;658443;-87
2022/03/30 01:32:59;;;;;;;69.77;31.77;;;3.80;1.00;;;;;;4314753;28;657952;-87
2022/03/30 01:35:47;;;;;;;74.97;30.60;;;3.80;1.00;;;;;;4311034;28;657721;-87
2022/03/30 01:38:35;;;;;;;82.33;36.10;;;3.70;1.00;;;;;;4332906;28;657814;-86
2022/03/30 01:41:23;;;;;;;76.70;33.50;;;3.70;12.20;;;;;;4313697;28;658585;-88
2022/03/30 01:44:10;;;;;;;84.00;35.28;;;3.70;7.40;;;;;;4311427;28;658815;-86
2022/03/30 01:46:58;;;;;;;89.73;37.07;;;3.60;15.20;;;;;;4330193;28;657758;-87
2022/03/30 01:49:45;;;;;;;88.05;35.78;;;3.50;48.10;;;;;;4324405;28;658619;-87
2022/03/30 01:52:33;;;;;;;83.23;34.60;;;3.50;95.10;;;;;;4323460;28;659186;-87
2022/03/30 01:55:22;;;;;;;81.45;35.25;;;3.40;99.90;;;;;;4307622;28;658371;-87
2022/03/30 01:58:09;;;;;;;87.97;35.23;;;3.30;99.90;;;;;;4342386;28;658711;-88
2022/03/30 02:00:57;;;;;;;87.23;35.70;;;3.30;99.90;;;;;;4309219;28;658800;-87
2022/03/30 02:03:44;;;;;;;89.73;37.17;;;3.20;99.90;;;;;;4332563;28;658750;-86
2022/03/30 02:06:32;;;;;;;78.77;33.13;;;3.20;99.90;;;;;;4313902;28;659151;-86
2022/03/30 02:09:20;;;;;;;80.40;33.00;;;3.20;99.90;;;;;;4333372;28;659242;-86
2022/03/30 02:12:09;;;;;;;84.27;35.40;;;3.20;99.90;;;;;;4311783;28;659929;-86
2022/03/30 02:14:57;;;;;;;78.13;32.27;;;3.10;99.90;;;;;;4309590;28;658742;-85
2022/03/30 02:17:44;;;;;;;76.97;31.53;;;3.10;99.90;;;;;;4326746;28;658411;-86
2022/03/30 02:20:31;;;;;;;76.07;31.67;;;3.00;99.90;;;;;;4309479;28;658776;-86
2022/03/30 02:23:19;;;;;;;82.30;33.03;;;3.00;99.90;;;;;;4335701;28;659412;-85
2022/03/30 02:26:07;;;;;;;83.83;32.50;;;2.90;99.90;;;;;;4307099;28;658539;-86
2022/03/30 02:28:55;;;;;;;76.37;32.30;;;2.80;99.90;;;;;;4339828;28;659093;-86
2022/03/30 02:31:43;;;;;;;75.57;31.53;;;2.80;99.90;;;;;;4321225;28;658854;-86
2022/03/30 02:34:31;;;;;;;80.63;32.87;;;2.70;99.90;;;;;;4329401;28;658743;-86
2022/03/30 02:37:18;;;;;;;81.60;31.60;;;2.70;99.90;;;;;;4322283;29;659626;-87
2022/03/30 02:40:06;;;;;;;79.57;32.23;;;2.70;99.90;;;;;;4305814;28;659053;-86
2022/03/30 02:42:54;;;;;;;69.20;30.00;;;2.70;1.00;;;;;;4331856;28;658588;-86
2022/03/30 02:45:43;;;;;;;65.00;28.40;;;2.60;1.00;;;;;;4312467;28;657897;-86
2022/03/30 02:48:33;;;;;;;76.43;31.27;;;2.60;1.00;;;;;;4320049;28;657828;-88
2022/03/30 02:51:20;;;;;;;69.90;28.53;;;2.50;99.90;;;;;;4321916;28;657856;-87
2022/03/30 02:54:08;;;;;;;81.80;30.97;;;2.40;1.00;;;;;;4338785;28;658853;-87
2022/03/30 02:56:55;;;;;;;78.17;30.67;;;2.40;1.00;;;;;;4320798;28;657922;-87
2022/03/30 02:59:43;;;;;;;74.03;29.80;;;2.30;1.00;;;;;;4327790;28;658048;-87
2022/03/30 03:02:32;;;;;;;73.90;29.90;;;2.30;1.00;;;;;;4313086;28;657660;-86
2022/03/30 03:05:19;;;;;;;71.37;28.43;;;2.10;1.00;;;;;;4335795;28;657201;-87
2022/03/30 03:08:07;;;;;;;76.93;29.13;;;2.10;1.00;;;;;;4309295;28;658573;-86
2022/03/30 03:10:56;;;;;;;63.30;27.10;;;2.10;1.00;;;;;;4337601;28;657788;-87
2022/03/30 03:13:43;;;;;;;62.30;27.40;;;2.00;1.00;;;;;;4331690;28;658153;-87
2022/03/30 03:16:31;;;;;;;68.50;26.73;;;1.90;1.00;;;;;;4308527;28;657479;-87
2022/03/30 03:19:20;;;;;;;74.50;29.43;;;1.90;1.00;;;;;;4333854;28;657688;-87
2022/03/30 03:22:07;;;;;;;66.17;27.13;;;1.80;1.00;;;;;;4317597;28;657793;-87
2022/03/30 03:24:55;;;;;;;63.87;25.87;;;1.80;1.00;;;;;;4340117;28;657158;-87
2022/03/30 03:27:42;;;;;;;64.63;24.57;;;1.70;1.00;;;;;;4305528;28;658756;-87
2022/03/30 03:30:30;;;;;;;63.33;26.65;;;1.60;1.00;;;;;;4325590;28;657123;-86
2022/03/30 03:33:17;;;;;;;62.70;25.80;;;1.60;1.00;;;;;;4291715;29;658305;-87
2022/03/30 03:36:07;;;;;;;64.03;26.13;;;1.50;1.00;;;;;;4315116;28;658387;-87
2022/03/30 03:38:54;;;;;;;65.60;25.43;;;1.40;1.00;;;;;;4318539;29;657686;-87
2022/03/30 03:41:43;;;;;;;63.87;26.33;;;1.40;1.00;;;;;;4289783;28;658167;-88
2022/03/30 03:44:30;;;;;;;66.60;25.27;;;1.30;1.00;;;;;;4296993;29;657891;-87
2022/03/30 03:47:18;;;;;;;65.40;25.60;;;1.20;1.00;;;;;;4318463;29;658553;-88
2022/03/30 03:50:06;;;;;;;61.27;24.13;;;1.20;1.00;;;;;;4295209;29;657922;-88
2022/03/30 03:52:55;;;;;;;70.10;27.87;;;1.10;1.00;;;;;;4319766;29;658286;-87
2022/03/30 03:55:42;;;;;;;75.07;27.80;;;1.10;1.00;;;;;;4288601;29;658092;-89
2022/03/30 03:58:30;;;;;;;67.33;26.73;;;1.00;1.00;;;;;;4316514;29;656973;-87
2022/03/30 04:01:18;;;;;;;67.43;25.87;;;1.00;1.00;;;;;;4308183;29;658766;-86
2022/03/30 04:04:06;;;;;;;61.97;25.87;;;0.90;1.00;;;;;;4296589;28;658425;-87
2022/03/30 04:06:53;;;;;;;66.83;26.33;;;0.90;1.00;;;;;;4319765;28;657921;-87
2022/03/30 04:09:42;;;;;;;68.25;25.48;;;0.80;1.00;;;;;;4289676;28;658018;-87
2022/03/30 04:12:29;;;;;;;123.73;38.13;;;0.80;1.00;;;;;;4311564;29;657260;-87
2022/03/30 04:15:17;;;;;;;70.23;26.93;;;0.70;1.00;;;;;;4286882;28;658432;-88
2022/03/30 04:18:04;;;;;;;61.43;25.50;;;0.60;1.00;;;;;;4314070;28;658494;-87
2022/03/30 04:20:52;;;;;;;68.03;25.00;;;0.60;21.30;;;;;;4296237;29;657622;-88
2022/03/30 04:23:39;;;;;;;81.17;28.03;;;0.50;35.50;;;;;;4311073;29;658690;-89
2022/03/30 04:26:28;;;;;;;112.13;33.80;;;0.50;51.00;;;;;;4289630;28;659247;-88
2022/03/30 04:29:15;;;;;;;109.63;30.90;;;0.50;59.60;;;;;;4295140;28;660305;-87
2022/03/30 04:32:03;;;;;;;571.37;110.80;;;0.50;80.70;;;;;;4327214;28;660079;-88
2022/03/30 04:34:50;;;;;;;993.33;211.13;;;0.50;99.90;;;;;;4305111;28;660726;-88
2022/03/30 04:37:38;;;;;;;833.93;162.00;;;0.50;99.90;;;;;;4327869;28;661182;-89
2022/03/30 04:40:26;;;;;;;504.27;98.60;;;0.50;99.90;;;;;;4311896;28;660803;-88
2022/03/30 04:43:15;;;;;;;367.47;75.70;;;0.60;99.90;;;;;;4334019;28;660563;-89
2022/03/30 04:46:02;;;;;;;167.13;44.77;;;0.50;99.90;;;;;;4315834;28;659376;-89
2022/03/30 04:48:49;;;;;;;112.90;33.47;;;0.50;99.90;;;;;;4332395;28;659131;-90
2022/03/30 04:51:37;;;;;;;86.03;28.90;;;0.60;99.90;;;;;;4311998;28;659652;-89
2022/03/30 04:54:24;;;;;;;90.37;29.73;;;0.60;99.90;;;;;;4335859;28;658356;-88
2022/03/30 04:57:11;;;;;;;114.25;34.03;;;0.70;99.90;;;;;;4306246;28;658371;-88
2022/03/30 05:00:00;;;;;;;90.33;29.83;;;0.70;99.90;;;;;;4332682;28;660135;-88
2022/03/30 05:02:47;;;;;;;79.87;28.77;;;0.70;99.90;;;;;;4311041;28;659027;-89
2022/03/30 05:05:35;;;;;;;106.80;35.13;;;0.70;99.90;;;;;;4320979;28;658957;-88
2022/03/30 05:08:23;;;;;;;108.93;37.83;;;0.80;99.90;;;;;;4325167;28;660263;-88
2022/03/30 05:11:10;;;;;;;80.97;29.10;;;0.90;99.90;;;;;;4317449;28;659991;-88
2022/03/30 05:13:58;;;;;;;69.13;25.40;;;1.00;99.90;;;;;;4326586;28;658842;-89
2022/03/30 05:16:47;;;;;;;70.73;26.03;;;1.10;99.90;;;;;;4321008;28;658802;-88
2022/03/30 05:19:34;;;;;;;73.70;26.63;;;1.20;99.90;;;;;;4337959;28;658581;-88
2022/03/30 05:22:22;;;;;;;83.57;28.63;;;1.30;99.90;;;;;;4304927;28;658388;-88
2022/03/30 05:25:09;;;;;;;95.30;31.57;;;1.50;99.90;;;;;;4338060;28;658744;-89
2022/03/30 05:27:56;;;;;;;85.13;30.67;;;1.60;99.90;;;;;;4299205;28;658569;-88
2022/03/30 05:30:46;;;;;;;81.37;29.23;;;1.70;99.90;;;;;;4340340;28;658720;-87
2022/03/30 05:33:35;;;;;;;86.87;27.93;;;1.70;99.90;;;;;;4307800;28;659098;-87
2022/03/30 05:36:23;;;;;;;76.80;27.90;;;1.90;99.90;;;;;;4297503;28;658821;-87
2022/03/30 05:39:10;;;;;;;74.73;27.67;;;2.00;99.90;;;;;;4330817;28;658677;-87
2022/03/30 05:41:58;;;;;;;83.20;28.10;;;2.20;99.90;;;;;;4330045;28;659030;-88
2022/03/30 05:44:45;;;;;;;77.77;26.63;;;2.30;99.90;;;;;;4317169;28;658489;-87
2022/03/30 05:47:33;;;;;;;69.17;25.63;;;2.50;99.90;;;;;;4336405;28;658607;-87
2022/03/30 05:50:23;;;;;;;64.82;25.92;;;2.60;99.90;;;;;;4307040;28;659191;-88
2022/03/30 05:53:10;;;;;;;64.18;25.05;;;2.80;99.90;;;;;;4320273;28;658800;-87
2022/03/30 05:55:58;;;;;;;64.27;26.00;;;3.00;99.90;;;;;;4331202;28;658780;-86
2022/03/30 05:58:45;;;;;;;69.03;27.60;;;3.10;6.40;;;;;;4326043;28;658575;-87
2022/03/30 06:01:33;;;;;;;82.13;27.70;;;3.30;1.00;;;;;;4326870;28;658218;-87
2022/03/30 06:04:20;;;;;;;65.90;25.97;;;3.50;1.00;;;;;;4319633;28;657422;-87
2022/03/30 06:07:09;;;;;;;69.27;27.47;;;3.70;1.00;;;;;;4334140;28;658335;-85
2022/03/30 06:09:56;;;;;;;104.83;38.03;;;4.00;1.00;;;;;;4310148;28;657786;-87
2022/03/30 06:12:44;;;;;;;76.00;28.67;;;4.20;1.00;;;;;;4327674;28;659365;-86
2022/03/30 06:15:32;;;;;;;68.70;28.77;;;4.40;1.00;;;;;;4301423;28;657372;-87
2022/03/30 06:18:19;;;;;;;91.67;37.27;;;4.70;1.00;;;;;;4332694;28;657172;-86
2022/03/30 06:21:06;;;;;;;88.13;34.03;;;4.80;1.00;;;;;;4318345;28;657872;-86
2022/03/30 06:23:55;;;;;;;72.60;30.80;;;5.00;1.00;;;;;;4328269;28;657996;-87
2022/03/30 06:26:42;;;;;;;82.23;33.77;;;5.20;1.00;;;;;;4306916;28;657457;-86
2022/03/30 06:29:30;;;;;;;84.50;33.80;;;5.40;1.00;;;;;;4329751;28;657682;-87
2022/03/30 06:32:19;;;;;;;71.57;30.27;;;5.60;99.90;;;;;;4334068;28;657667;-86
2022/03/30 06:35:07;;;;;;;63.27;28.40;;;5.80;56.30;;;;;;4322129;28;659342;-88
2022/03/30 06:37:54;;;;;;;64.80;29.10;;;6.00;1.00;;;;;;4336089;28;658701;-87
2022/03/30 06:40:47;;;;;;;68.67;29.43;;;6.20;99.90;;;;;;4313577;28;657775;-88
2022/03/30 06:43:36;;;;;;;71.30;29.83;;;6.50;1.00;;;;;;4310343;28;658415;-87
2022/03/30 06:46:23;;;;;;;63.10;27.90;;;6.70;99.90;;;;;;4316564;28;658350;-87
2022/03/30 06:49:11;;;;;;;66.35;28.27;;;7.00;1.00;;;;;;4305802;29;658923;-87
2022/03/30 06:51:58;;;;;;;63.47;29.00;;;7.20;28.10;;;;;;4330524;28;658711;-87
2022/03/30 06:54:45;;;;;;;61.50;29.17;;;7.40;1.00;;;;;;4315042;28;658839;-87
2022/03/30 06:57:34;;;;;;;51.43;24.43;;;7.50;1.00;;;;;;4343584;28;657776;-88
2022/03/30 07:00:22;;;;;;;59.87;26.67;;;7.80;99.90;;;;;;4323215;28;657314;-88
2022/03/30 07:03:09;;;;;;;59.87;27.53;;;8.00;99.90;;;;;;4343763;28;658645;-88
2022/03/30 07:05:57;;;;;;;51.20;23.80;;;8.20;99.90;;;;;;4323551;28;658744;-89
2022/03/30 07:11:49;;;;;;;45.80;20.23;;;8.60;1.00;;;;;;4304543;28;657929;-89
2022/03/30 07:14:37;;;;;;;39.30;16.97;;;8.90;99.90;;;;;;4325019;28;657390;-90
2022/03/30 07:17:25;;;;;;;47.50;21.97;;;8.80;99.90;;;;;;4346294;28;658297;-90
2022/03/30 07:20:13;;;;;;;48.47;21.83;;;8.80;99.90;;;;;;4307870;28;660077;-89
2022/03/30 07:23:00;;;;;;;40.30;20.83;;;8.80;99.90;;;;;;4333768;28;658491;-88
2022/03/30 07:25:48;;;;;;;44.77;20.37;;;8.90;99.90;;;;;;4342060;28;659425;-87
2022/03/30 07:28:37;;;;;;;41.20;19.83;;;9.00;99.90;;;;;;4328324;28;659094;-88
2022/03/30 07:31:26;;;;;;;44.33;19.30;;;9.10;99.90;;;;;;4344818;28;658141;-86
2022/03/30 07:34:13;;;;;;;42.10;19.33;;;9.30;99.90;;;;;;4312810;28;659451;-86
2022/03/30 07:37:01;;;;;;;42.60;21.90;;;9.40;99.90;;;;;;4302523;28;658838;-86
2022/03/30 07:39:48;;;;;;;40.00;19.70;;;9.40;98.30;;;;;;4326990;28;659714;-86
2022/03/30 07:42:35;;;;;;;38.70;18.30;;;9.50;99.90;;;;;;4314616;28;658822;-87
2022/03/30 07:45:23;;;;;;;38.10;17.50;;;9.80;99.80;;;;;;4337159;28;658902;-87
2022/03/30 07:48:13;;;;;;;39.20;17.43;;;9.90;68.80;;;;;;4316674;28;658552;-87
2022/03/30 07:51:00;;;;;;;34.22;17.10;;;10.00;52.30;;;;;;4315981;28;658578;-89
2022/03/30 07:53:48;;;;;;;33.90;16.33;;;10.20;24.40;;;;;;4338376;28;660995;-87
2022/03/30 07:56:35;;;;;;;34.47;16.80;;;10.10;1.00;;;;;;4301282;28;660077;-87
2022/03/30 07:59:23;;;;;;;37.23;17.10;;;10.30;1.00;;;;;;4325704;28;659262;-88
2022/03/30 08:02:13;;;;;;;36.20;18.42;;;10.30;1.00;;;;;;4315033;28;658568;-87
2022/03/30 08:05:02;;;;;;;35.77;17.17;;;10.20;1.00;;;;;;4325032;28;659111;-87
2022/03/30 08:07:50;;;;;;;35.33;16.50;;;10.40;1.00;;;;;;4327542;28;658225;-86
2022/03/30 08:10:38;;;;;;;35.53;16.90;;;10.50;1.00;;;;;;4302310;28;658448;-87
2022/03/30 08:13:25;;;;;;;39.17;18.10;;;10.70;1.00;;;;;;4321746;28;659066;-86
2022/03/30 08:16:13;;;;;;;37.73;17.50;;;10.90;1.00;;;;;;4333613;28;659574;-86
2022/03/30 08:19:01;;;;;;;32.97;17.77;;;11.10;1.00;;;;;;4317537;28;658507;-86
2022/03/30 08:24:56;;;;;;;47.40;21.73;;;11.60;1.00;;;;;;4321482;28;658771;-88
2022/03/30 08:27:44;;;;;;;43.73;20.50;;;11.90;1.00;;;;;;4331955;28;659115;-88
2022/03/30 08:30:31;;;;;;;39.23;21.17;;;12.10;1.00;;;;;;4318561;28;658997;-88
2022/03/30 08:33:23;;;;;;;42.33;21.43;;;12.30;1.00;;;;;;4328297;28;660504;-89
2022/03/30 08:36:10;;;;;;;43.25;21.90;;;12.50;1.00;;;;;;4314551;28;658967;-87
2022/03/30 08:39:05;;;;;;;41.20;20.80;;;12.60;1.00;;;;;;4320245;28;659240;-86
2022/03/30 08:41:52;;;;;;;48.17;22.43;;;12.60;1.00;;;;;;4296582;28;658972;-89
2022/03/30 08:44:41;;;;;;;53.77;26.17;;;12.70;1.00;;;;;;4324905;28;658679;-88
2022/03/30 08:47:28;;;;;;;47.27;22.07;;;12.80;1.00;;;;;;4286301;28;659088;-88
2022/03/30 08:50:16;;;;;;;49.58;21.17;;;13.10;1.00;;;;;;4283885;28;658749;-88
2022/03/30 08:53:04;;;;;;;45.80;21.90;;;13.10;1.00;;;;;;4316868;28;659169;-87
2022/03/30 08:55:53;;;;;;;37.83;19.10;;;13.20;1.00;;;;;;4321321;28;658868;-87
2022/03/30 08:59:00;;;;;;;44.13;20.77;;;13.00;1.00;;;;;;4323138;28;658677;-87
2022/03/30 09:01:47;;;;;;;45.77;22.37;;;13.10;1.00;;;;;;4305278;28;658722;-85
2022/03/30 09:04:35;;;;;;;44.00;22.80;;;13.00;1.00;;;;;;4332877;28;658234;-86
2022/03/30 09:07:22;;;;;;;46.60;23.07;;;13.10;1.00;;;;;;4304133;28;659533;-87
2022/03/30 09:10:14;;;;;;;46.50;23.40;;;13.20;1.00;;;;;;4332890;28;658225;-86
2022/03/30 09:13:03;;;;;;;44.37;23.50;;;13.40;1.00;;;;;;4320477;28;658629;-85
2022/03/30 09:15:51;;;;;;;46.63;22.77;;;13.60;1.00;;;;;;4316385;28;658620;-85
2022/03/30 09:19:03;;;;;;;40.78;21.38;;;13.80;1.00;;;;;;4332665;28;658747;-86
2022/03/30 09:21:56;;;;;;;41.90;21.77;;;13.90;1.00;;;;;;4280976;28;658785;-86
2022/03/30 09:24:44;;;;;;;42.60;20.83;;;14.00;1.00;;;;;;4311381;28;659088;-87
2022/03/30 09:27:31;;;;;;;40.97;20.93;;;14.10;1.00;;;;;;4311941;28;658537;-87
2022/03/30 09:30:21;;;;;;;32.50;17.13;;;14.30;1.00;;;;;;4330756;28;659200;-87
2022/03/30 09:33:12;;;;;;;23.47;9.53;;;14.70;1.00;;;;;;4312706;28;659043;-86
2022/03/30 09:35:59;;;;;;;39.40;20.77;;;14.40;1.00;;;;;;4289990;28;657132;-86
2022/03/30 09:38:47;;;;;;;46.33;20.70;;;14.10;1.00;;;;;;4302855;28;658966;-85
2022/03/30 09:41:55;;;;;;;33.10;16.13;;;14.20;1.00;;;;;;4331391;29;658459;-86
2022/03/30 09:44:46;;;;;;;30.13;14.10;;;14.10;1.00;;;;;;4311392;28;658539;-88
2022/03/30 09:47:39;;;;;;;40.80;20.90;;;14.00;1.00;;;;;;4317640;28;658650;-87
2022/03/30 09:50:29;;;;;;;39.57;20.67;;;13.70;1.00;;;;;;4316076;28;659142;-86
2022/03/30 09:53:17;;;;;;;37.30;18.77;;;13.90;1.00;;;;;;4316868;28;658828;-86
2022/03/30 09:56:06;;;;;;;35.43;15.90;;;14.50;1.00;;;;;;4333565;28;658102;-87
2022/03/30 09:59:00;;;;;;;34.70;17.77;;;14.70;1.00;;;;;;4310352;28;658923;-86
2022/03/30 10:01:50;;;;;;;36.17;19.07;;;14.00;1.00;;;;;;4311630;28;658306;-86
2022/03/30 10:04:40;;;;;;;39.50;17.92;;;13.60;1.00;;;;;;4316147;28;658763;-86
2022/03/30 10:07:27;;;;;;;32.40;16.43;;;14.00;1.00;;;;;;4312973;28;658875;-86
2022/03/30 10:10:16;;;;;;;33.03;15.93;;;14.10;1.00;;;;;;4326948;28;658945;-88
2022/03/30 10:13:05;;;;;;;30.10;14.95;;;14.60;1.00;;;;;;4322762;28;658725;-87
2022/03/30 10:15:53;;;;;;;30.42;15.18;;;14.80;1.00;;;;;;4308319;28;658953;-87
2022/03/30 10:18:43;;;;;;;26.55;13.73;;;15.10;1.00;;;;;;4315182;28;658892;-87
2022/03/30 10:21:44;;;;;;;27.17;10.70;;;15.10;1.00;;;;;;4305448;28;658607;-86
2022/03/30 10:24:41;;;;;;;19.40;8.90;;;15.30;1.00;;;;;;4300648;28;659275;-86
2022/03/30 10:27:33;;;;;;;33.70;15.67;;;15.10;1.00;;;;;;4312474;28;657805;-85
2022/03/30 10:30:43;;;;;;;28.50;14.43;;;14.60;1.00;;;;;;4298250;28;658899;-85
2022/03/30 10:33:32;;;;;;;26.60;13.97;;;14.50;1.00;;;;;;4290621;28;659062;-85
2022/03/30 10:36:24;;;;;;;29.07;14.00;;;14.70;1.00;;;;;;4315490;28;658657;-85
2022/03/30 10:39:27;;;;;;;30.48;12.60;;;14.90;1.00;;;;;;4306142;28;659246;-85
2022/03/30 10:42:14;;;;;;;22.70;9.90;;;15.10;1.00;;;;;;4312424;28;659072;-87
2022/03/30 10:45:03;;;;;;;23.90;10.70;;;14.70;1.00;;;;;;4318320;28;657911;-86
2022/03/30 10:48:06;;;;;;;28.17;13.43;;;14.50;1.00;;;;;;4320229;28;659223;-87
2022/03/30 10:50:55;;;;;;;23.20;12.17;;;14.60;1.00;;;;;;4312435;28;659160;-87
2022/03/30 10:53:55;;;;;;;23.77;11.93;;;14.70;1.00;;;;;;4314340;28;658869;-86
2022/03/30 10:56:50;;;;;;;26.50;12.03;;;14.90;1.00;;;;;;4320698;28;658958;-87
2022/03/30 10:59:38;;;;;;;21.73;12.57;;;14.70;1.00;;;;;;4318787;28;659435;-86
2022/03/30 11:02:25;;;;;;;25.13;13.25;;;14.40;1.00;;;;;;4326654;28;658563;-87
2022/03/30 11:05:14;;;;;;;20.67;9.90;;;14.30;1.00;;;;;;4333031;28;659544;-87
2022/03/30 11:08:02;;;;;;;21.93;12.17;;;15.00;1.00;;;;;;4318623;28;657525;-86
2022/03/30 11:10:49;;;;;;;24.70;11.33;;;15.30;1.00;;;;;;4342442;28;658842;-85
2022/03/30 11:13:38;;;;;;;26.17;13.30;;;15.70;1.00;;;;;;4311905;28;658835;-84
2022/03/30 11:16:25;;;;;;;25.30;14.17;;;15.60;1.00;;;;;;4315611;28;659370;-87
2022/03/30 11:19:13;;;;;;;25.10;12.47;;;15.70;1.00;;;;;;4329925;28;659062;-86
2022/03/30 11:22:15;;;;;;;27.67;13.57;;;15.80;1.00;;;;;;4331529;28;658631;-88
2022/03/30 11:25:06;;;;;;;26.30;13.63;;;15.80;1.00;;;;;;4303745;28;659615;-86
2022/03/30 11:28:15;;;;;;;26.30;13.50;;;15.70;1.00;;;;;;4271778;28;659122;-86
2022/03/30 11:31:05;;;;;;;25.30;13.47;;;15.60;1.00;;;;;;4300187;28;658910;-86
2022/03/30 11:34:20;;;;;;;31.60;14.60;;;15.60;1.00;;;;;;4310050;28;658854;-85
2022/03/30 11:37:09;;;;;;;27.23;14.33;;;15.60;1.00;;;;;;4311490;28;658798;-85
2022/03/30 11:40:01;;;;;;;19.47;7.33;;;15.30;1.00;;;;;;4312261;28;658819;-86
2022/03/30 11:42:50;;;;;;;25.53;13.73;;;15.10;1.00;;;;;;4315455;28;657956;-86
2022/03/30 11:45:37;;;;;;;23.93;13.70;;;14.90;1.00;;;;;;4307472;28;659224;-86
2022/03/30 11:48:27;;;;;;;27.90;13.97;;;14.80;1.00;;;;;;4328304;28;659054;-87
2022/03/30 11:51:14;;;;;;;26.80;14.00;;;14.70;1.00;;;;;;4330447;28;658430;-86
2022/03/30 11:54:11;;;;;;;26.70;13.70;;;14.50;1.00;;;;;;4311154;28;658678;-86
2022/03/30 11:56:59;;;;;;;30.63;15.37;;;14.70;1.00;;;;;;4317225;28;658536;-86
2022/03/30 11:59:54;;;;;;;22.90;13.23;;;15.00;1.00;;;;;;4308266;28;658776;-86
2022/03/30 12:02:43;;;;;;;26.70;13.23;;;15.10;1.00;;;;;;4308386;28;658500;-85
2022/03/30 12:05:32;;;;;;;30.08;14.52;;;15.00;1.00;;;;;;4318433;28;658872;-85
2022/03/30 12:08:19;;;;;;;28.97;15.70;;;15.00;1.00;;;;;;4335409;28;658445;-85
2022/03/30 12:11:07;;;;;;;27.87;14.93;;;14.70;1.00;;;;;;4313345;28;658810;-84
2022/03/30 12:13:55;;;;;;;24.40;12.77;;;14.60;1.00;;;;;;4336270;28;658380;-85
2022/03/30 12:16:42;;;;;;;25.27;12.97;;;14.60;1.00;;;;;;4313489;28;658999;-84
2022/03/30 12:19:30;;;;;;;30.87;14.57;;;13.90;1.00;;;;;;4327220;29;658305;-84
2022/03/30 12:22:19;;;;;;;29.33;13.90;;;14.00;1.00;;;;;;4307490;28;659195;-85
2022/03/30 12:25:21;;;;;;;31.37;14.80;;;13.90;1.00;;;;;;4314395;28;658703;-85
2022/03/30 12:28:08;;;;;;;30.40;13.97;;;13.80;1.00;;;;;;4307014;28;658318;-84
2022/03/30 12:30:56;;;;;;;29.50;14.77;;;13.70;1.00;;;;;;4312793;28;659046;-85
2022/03/30 12:33:44;;;;;;;27.77;14.53;;;13.80;1.00;;;;;;4334652;28;659374;-84
2022/03/30 12:36:32;;;;;;;32.47;14.50;;;13.80;1.00;;;;;;4320674;28;658402;-85
2022/03/30 12:39:22;;;;;;;35.43;16.50;;;13.70;1.00;;;;;;4327435;28;658281;-85
2022/03/30 12:42:10;;;;;;;29.97;14.87;;;13.60;1.00;;;;;;4354733;28;659071;-86
2022/03/30 12:45:00;;;;;;;29.87;15.70;;;13.50;1.00;;;;;;4312598;28;659162;-85
2022/03/30 12:47:50;;;;;;;30.13;14.93;;;13.40;1.00;;;;;;4312223;28;658678;-85
2022/03/30 12:50:38;;;;;;;28.37;15.50;;;13.50;1.00;;;;;;4312270;28;658823;-84
2022/03/30 12:53:31;;;;;;;27.03;15.37;;;13.40;1.00;;;;;;4313776;28;658764;-86
2022/03/30 12:56:23;;;;;;;28.03;13.93;;;13.30;1.00;;;;;;4307556;28;659299;-87
2022/03/30 12:59:10;;;;;;;26.13;14.93;;;13.30;1.00;;;;;;4333140;28;658643;-86
2022/03/30 13:01:58;;;;;;;27.53;14.50;;;13.30;1.00;;;;;;4338604;28;659129;-85
2022/03/30 13:04:49;;;;;;;27.97;14.03;;;13.20;1.00;;;;;;4316778;28;658955;-85
2022/03/30 13:07:52;;;;;;;27.90;14.83;;;13.30;1.00;;;;;;4306842;28;659119;-86
2022/03/30 13:10:51;;;;;;;30.30;14.30;;;13.40;1.00;;;;;;4331592;28;658162;-86
2022/03/30 13:13:41;;;;;;;38.20;19.50;;;13.50;1.00;;;;;;4314169;28;658752;-86
2022/03/30 13:16:29;;;;;;;31.10;15.20;;;13.50;1.00;;;;;;4318052;28;659333;-85
2022/03/30 13:19:18;;;;;;;32.97;15.07;;;13.50;1.00;;;;;;4319115;28;658577;-86
2022/03/30 13:22:06;;;;;;;28.27;14.70;;;13.50;1.00;;;;;;4332036;28;658755;-86
2022/03/30 13:24:54;;;;;;;30.83;14.83;;;13.60;1.00;;;;;;4336705;28;658878;-86
2022/03/30 13:27:42;;;;;;;27.87;13.40;;;13.60;1.00;;;;;;4321010;28;658659;-86
2022/03/30 13:30:31;;;;;;;33.17;15.87;;;13.70;1.00;;;;;;4331549;28;658427;-86
2022/03/30 13:33:18;;;;;;;30.53;15.60;;;13.80;1.00;;;;;;4310942;28;659085;-86
2022/03/30 13:36:06;;;;;;;28.23;14.43;;;13.40;1.00;;;;;;4309087;28;659235;-87
2022/03/30 13:38:54;;;;;;;30.70;14.10;;;13.20;1.00;;;;;;4322834;28;659290;-85
2022/03/30 13:41:42;;;;;;;31.70;15.50;;;13.10;1.00;;;;;;4291441;28;659607;-86
2022/03/30 13:44:30;;;;;;;70.00;26.77;;;13.00;1.00;;;;;;4322225;28;658310;-85
2022/03/30 13:47:20;;;;;;;32.27;16.00;;;12.90;1.00;;;;;;4305589;28;659512;-85
2022/03/30 13:50:08;;;;;;;56.57;26.43;;;12.90;1.00;;;;;;4307814;28;659050;-84
2022/03/30 13:52:56;;;;;;;35.03;18.23;;;12.90;1.00;;;;;;4312297;28;658300;-86
2022/03/30 13:55:43;;;;;;;31.47;15.70;;;13.00;1.00;;;;;;4332015;28;659536;-87
2022/03/30 13:58:31;;;;;;;23.63;13.47;;;13.00;1.00;;;;;;4308084;28;658816;-87
2022/03/30 14:01:19;;;;;;;32.27;16.77;;;13.00;1.00;;;;;;4343845;28;659238;-87
2022/03/30 14:04:08;;;;;;;53.07;25.13;;;12.90;1.00;;;;;;4316188;28;658822;-87
2022/03/30 14:06:55;;;;;;;33.58;17.48;;;12.80;1.00;;;;;;4312948;28;658672;-86
2022/03/30 14:09:43;;;;;;;47.93;20.43;;;12.70;1.00;;;;;;4335168;28;659279;-87
2022/03/30 14:12:31;;;;;;;49.20;20.20;;;12.70;1.00;;;;;;4315377;28;659333;-88
2022/03/30 14:15:19;;;;;;;46.17;19.00;;;12.60;1.00;;;;;;4323757;28;658871;-87
2022/03/30 14:18:08;;;;;;;36.83;16.30;;;12.50;1.00;;;;;;4314155;28;658949;-87
2022/03/30 14:20:57;;;;;;;41.57;18.50;;;12.50;1.00;;;;;;4326704;28;658386;-87
2022/03/30 14:23:44;;;;;;;34.07;14.47;;;12.40;1.00;;;;;;4331127;28;658881;-87
2022/03/30 14:26:32;;;;;;;30.03;14.23;;;12.40;1.00;;;;;;4296664;28;659278;-86